createdAt,value
2022-12-12T00:01:56.784Z,0.82
2022-12-12T00:07:28.241Z,0.86
2022-12-12T00:13:00.112Z,0.86
2022-12-12T00:18:31.738Z,0.82
2022-12-12T00:24:03.748Z,0.79
2022-12-12T00:29:35.269Z,0.78
2022-12-12T00:35:06.846Z,0.75
2022-12-12T00:40:38.813Z,0.76
2022-12-12T00:46:10.425Z,0.73
2022-12-12T00:51:42.157Z,0.73
2022-12-12T00:57:13.712Z,0.77
2022-12-12T01:02:49.851Z,0.76
2022-12-12T01:08:21.600Z,0.71
2022-12-12T01:13:53.252Z,0.7
2022-12-12T01:19:24.993Z,0.71
2022-12-12T01:24:56.881Z,0.71
2022-12-12T01:30:28.497Z,0.67
2022-12-12T01:36:00.285Z,0.63
2022-12-12T01:41:31.870Z,0.48
2022-12-12T01:47:03.656Z,0.49
2022-12-12T01:52:35.482Z,0.52
2022-12-12T01:58:07.212Z,0.44
2022-12-12T02:03:43.142Z,0.49
2022-12-12T02:09:14.848Z,0.36
2022-12-12T02:14:46.717Z,0.23
2022-12-12T02:20:18.424Z,0.09
2022-12-12T02:25:50.015Z,-0.1
2022-12-12T02:31:21.800Z,-0.21
2022-12-12T02:36:53.609Z,-0.34
2022-12-12T02:42:25.342Z,-0.51
2022-12-12T02:47:56.921Z,-0.56
2022-12-12T02:53:28.849Z,-0.58
2022-12-12T02:59:00.494Z,-0.7
2022-12-12T03:04:36.496Z,-0.86
2022-12-12T03:10:08.201Z,-0.9
2022-12-12T03:15:39.994Z,-0.93
2022-12-12T03:21:11.616Z,-1.03
2022-12-12T03:26:43.502Z,-1.1
2022-12-12T03:32:15.062Z,-1.22
2022-12-12T03:37:46.942Z,-1.28
2022-12-12T03:43:18.526Z,-1.38
2022-12-12T03:48:50.469Z,-1.36
2022-12-12T03:54:21.945Z,-1.36
2022-12-12T03:59:53.641Z,-1.43
2022-12-12T04:05:29.828Z,-1.42
2022-12-12T04:11:01.488Z,-1.38
2022-12-12T04:16:33.233Z,-1.32
2022-12-12T04:22:04.924Z,-1.26
2022-12-12T04:27:36.700Z,-1.27
2022-12-12T04:33:08.438Z,-1.21
2022-12-12T04:38:40.328Z,-1.16
2022-12-12T04:44:11.866Z,-1.08
2022-12-12T04:49:43.545Z,-0.99
2022-12-12T04:55:15.552Z,-1.02
2022-12-12T05:00:47.054Z,-0.92
2022-12-12T05:06:23.109Z,-0.98
2022-12-12T05:11:54.845Z,-0.9
2022-12-12T05:17:26.597Z,-0.89
2022-12-12T05:22:58.407Z,-0.94
2022-12-12T05:28:30.197Z,-0.85
2022-12-12T05:34:01.751Z,-0.93
2022-12-12T05:39:34.218Z,-0.91
2022-12-12T05:45:05.312Z,-0.85
2022-12-12T05:50:36.881Z,-1.22
2022-12-12T05:56:08.627Z,-1.33
2022-12-12T06:01:40.346Z,-1.08
2022-12-12T06:07:18.453Z,-0.79
2022-12-12T06:12:50.125Z,-0.81
2022-12-12T06:18:22.057Z,-0.72
2022-12-12T06:23:53.632Z,-0.86
2022-12-12T06:29:25.356Z,-0.7
2022-12-12T06:34:57.293Z,-0.74
2022-12-12T06:40:28.759Z,-0.71
2022-12-12T06:46:00.512Z,-0.56
2022-12-12T06:51:32.207Z,-0.62
2022-12-12T06:57:03.972Z,-0.55
2022-12-12T07:02:35.696Z,-0.6
2022-12-12T07:08:14.064Z,-0.54
2022-12-12T07:13:45.556Z,-0.49
2022-12-12T07:19:17.256Z,-0.55
2022-12-12T07:24:48.955Z,-0.48
2022-12-12T07:30:20.673Z,-0.64
2022-12-12T07:35:52.420Z,-0.74
2022-12-12T07:41:24.142Z,-0.94
2022-12-12T07:46:55.947Z,-1.17
2022-12-12T07:52:27.606Z,-1.37
2022-12-12T07:57:59.429Z,-1.0
2022-12-12T08:03:30.965Z,-1.13
2022-12-12T08:09:07.291Z,-0.66
2022-12-12T08:14:38.763Z,-0.56
2022-12-12T08:20:10.744Z,-0.39
2022-12-12T08:25:42.296Z,-0.39
2022-12-12T08:31:13.998Z,-0.19
2022-12-12T08:36:45.910Z,-0.6
2022-12-12T08:42:17.736Z,-0.84
2022-12-12T08:47:49.388Z,-0.2
2022-12-12T08:53:21.116Z,-0.29
2022-12-12T08:58:52.865Z,-0.01
2022-12-12T09:04:24.565Z,-0.15
2022-12-12T09:10:00.630Z,-0.02
2022-12-12T09:15:32.234Z,0.09
2022-12-12T09:21:04.064Z,-0.17
2022-12-12T09:26:36.244Z,0.13
2022-12-12T09:32:07.430Z,-0.08
2022-12-12T09:37:39.152Z,0.01
2022-12-12T09:43:10.836Z,0.09
2022-12-12T09:48:42.856Z,0.37
2022-12-12T09:54:14.517Z,0.77
2022-12-12T09:59:46.059Z,0.99
2022-12-12T10:05:17.790Z,0.85
2022-12-12T10:10:54.138Z,0.71
2022-12-12T10:16:25.670Z,0.9
2022-12-12T10:21:57.358Z,0.58
2022-12-12T10:27:29.107Z,0.07
2022-12-12T10:33:01.056Z,0.58
2022-12-12T10:38:32.486Z,0.55
2022-12-12T10:44:04.235Z,0.68
2022-12-12T10:49:36.063Z,0.52
2022-12-12T10:55:07.659Z,0.49
2022-12-12T11:00:39.539Z,0.56
2022-12-12T11:06:11.114Z,0.58
2022-12-12T11:11:47.334Z,0.9
2022-12-12T11:17:19.076Z,0.9
2022-12-12T11:22:50.640Z,1.55
2022-12-12T11:28:22.428Z,1.87
2022-12-12T11:33:54.770Z,1.9
2022-12-12T11:39:25.958Z,2.58
2022-12-12T11:44:58.026Z,3.22
2022-12-12T11:50:29.292Z,2.96
2022-12-12T11:56:01.027Z,3.27
2022-12-12T12:01:32.920Z,3.08
2022-12-12T12:07:04.669Z,2.79
2022-12-12T12:12:40.784Z,3.23
2022-12-12T12:18:12.376Z,3.63
2022-12-12T12:23:47.528Z,3.14
2022-12-12T12:29:16.046Z,3.47
2022-12-12T12:34:47.681Z,3.26
2022-12-12T12:40:19.184Z,3.03
2022-12-12T12:45:51.007Z,2.13
2022-12-12T12:51:22.975Z,1.95
2022-12-12T12:56:54.400Z,2.51
2022-12-12T13:02:27.332Z,2.39
2022-12-12T13:07:57.901Z,2.14
2022-12-12T13:13:33.992Z,2.14
2022-12-12T13:19:05.683Z,2.21
2022-12-12T13:24:37.449Z,2.09
2022-12-12T13:30:09.336Z,1.99
2022-12-12T13:35:40.888Z,1.96
2022-12-12T13:41:12.945Z,1.85
2022-12-12T13:46:44.368Z,1.7
2022-12-12T13:52:16.771Z,1.6
2022-12-12T13:57:47.857Z,1.6
2022-12-12T14:03:19.536Z,1.46
2022-12-12T14:08:51.314Z,1.35
2022-12-12T14:14:27.329Z,1.32
2022-12-12T14:19:59.250Z,1.29
2022-12-12T14:25:30.954Z,1.31
2022-12-12T14:31:02.571Z,1.21
2022-12-12T14:36:34.338Z,1.15
2022-12-12T14:42:05.978Z,1.16
2022-12-12T14:47:37.705Z,1.1
2022-12-12T14:53:09.625Z,1.04
2022-12-12T14:58:41.325Z,1.1
2022-12-12T15:04:13.081Z,0.78
2022-12-12T15:09:44.775Z,0.84
2022-12-12T15:15:22.991Z,0.51
2022-12-12T15:20:54.437Z,0.62
2022-12-12T15:26:26.263Z,0.49
2022-12-12T15:31:58.103Z,0.52
2022-12-12T15:37:29.552Z,0.53
2022-12-12T15:43:01.273Z,0.43
2022-12-12T15:48:33.181Z,0.4
2022-12-12T15:54:04.759Z,0.36
2022-12-12T15:59:36.573Z,0.43
2022-12-12T16:05:08.289Z,0.41
2022-12-12T16:10:39.868Z,0.39
2022-12-12T16:16:18.048Z,0.32
2022-12-12T16:21:49.727Z,0.22
2022-12-12T16:27:21.478Z,0.13
2022-12-12T16:32:53.160Z,0.18
2022-12-12T16:38:25.245Z,0.07
2022-12-12T16:43:56.844Z,-0.02
2022-12-12T16:49:28.605Z,0.03
2022-12-12T16:55:00.088Z,0.03
2022-12-12T17:00:32.204Z,-0.18
2022-12-12T17:06:03.512Z,-0.1
2022-12-12T17:11:35.329Z,-0.08
2022-12-12T17:17:13.453Z,-0.09
2022-12-12T17:22:45.102Z,-0.2
2022-12-12T17:28:16.857Z,-0.25
2022-12-12T17:33:50.816Z,-0.29
2022-12-12T17:39:20.340Z,-0.28
2022-12-12T17:44:52.042Z,-0.38
2022-12-12T17:50:23.876Z,-0.4
2022-12-12T17:56:01.049Z,-0.35
2022-12-12T18:01:27.402Z,-0.31
2022-12-12T18:06:59.264Z,-0.51
2022-12-12T18:12:30.854Z,-0.46
2022-12-12T18:18:09.112Z,-0.49
2022-12-12T18:23:40.621Z,-0.48
2022-12-12T18:29:12.375Z,-0.42
2022-12-12T18:34:44.454Z,-0.43
2022-12-12T18:40:16.378Z,-0.45
2022-12-12T18:45:47.611Z,-0.48
2022-12-12T18:51:20.061Z,-0.59
2022-12-12T18:56:51.025Z,-0.72
2022-12-12T19:02:22.841Z,-0.93
2022-12-12T19:07:54.787Z,-0.82
2022-12-12T19:13:26.324Z,-0.99
2022-12-12T19:19:02.474Z,-1.06
2022-12-12T19:24:34.509Z,-1.02
2022-12-12T19:30:06.089Z,-0.98
2022-12-12T19:35:37.902Z,-1.12
2022-12-12T19:41:09.585Z,-1.23
2022-12-12T19:46:41.416Z,-1.02
2022-12-12T19:52:14.386Z,-1.17
2022-12-12T19:57:44.554Z,-1.13
2022-12-12T20:03:16.388Z,-1.26
2022-12-12T20:08:47.981Z,-1.16
2022-12-12T20:14:19.865Z,-1.09
2022-12-12T20:19:58.029Z,-1.13
2022-12-12T20:25:29.572Z,-1.18
2022-12-12T20:31:01.310Z,-1.32
2022-12-12T20:36:33.466Z,-1.33
2022-12-12T20:42:04.873Z,-1.32
2022-12-12T20:47:36.603Z,-1.32
2022-12-12T20:53:08.477Z,-1.48
2022-12-12T20:58:39.978Z,-1.45
2022-12-12T21:04:11.649Z,-1.51
2022-12-12T21:09:43.389Z,-1.75
2022-12-12T21:15:15.274Z,-1.79
2022-12-12T21:20:53.225Z,-1.66
2022-12-12T21:26:28.575Z,-1.76
2022-12-12T21:31:56.909Z,-1.91
2022-12-12T21:37:28.432Z,-2.08
2022-12-12T21:43:00.190Z,-2.03
2022-12-12T21:48:31.920Z,-2.11
2022-12-12T21:54:03.851Z,-2.31
2022-12-12T21:59:35.378Z,-2.19
2022-12-12T22:05:07.913Z,-2.13
2022-12-12T22:10:39.010Z,-1.99
2022-12-12T22:16:10.594Z,-2.01
2022-12-12T22:21:48.728Z,-2.03
2022-12-12T22:27:20.435Z,-2.16
2022-12-12T22:32:52.161Z,-2.16
2022-12-12T22:38:24.046Z,-2.35
2022-12-12T22:43:55.793Z,-2.45
2022-12-12T22:49:27.433Z,-2.47
2022-12-12T22:54:59.017Z,-2.3
2022-12-12T23:00:30.679Z,-2.51
2022-12-12T23:06:02.415Z,-2.48
2022-12-12T23:11:34.414Z,-2.4
2022-12-12T23:17:05.880Z,-2.59
2022-12-12T23:22:44.247Z,-2.51
2022-12-12T23:28:15.899Z,-2.53
2022-12-12T23:33:47.500Z,-2.64
2022-12-12T23:39:19.332Z,-2.54
2022-12-12T23:44:51.097Z,-2.54
2022-12-12T23:50:22.624Z,-2.54
2022-12-12T23:55:54.353Z,-2.56
